JST509 YSSY-YMML
Flight info
| Callsign | JST509 |
|---|---|
| Flight time | N/A |
| Altitude | 34000 |
| Route | WOL H65 LEECE Q29 ML |
| Aircraft | A320/M-SDE3FGHIRWY/LB1 |
Departure
| Time | 2026-05-04 10:16 |
|---|---|
| Airport | Sydney Kingsford Smith International Airport (YSSY) |
Arrival
| Time | N/A |
|---|---|
| Airport | Melbourne Airport (YMML) |
| Time | Latitude | Longitude | Altitude | Speed | Heading |
|---|---|---|---|---|---|
| 2026-05-04 09:20 | -33.93513 | 151.17687 | 30 ft | 0 kts | 97° |
| 2026-05-04 10:00 | -33.93483 | 151.17586 | 28 ft | 0 kts | 177° |
| 2026-05-04 10:02 | -33.93538 | 151.17596 | 28 ft | 9 kts | 167° |
| 2026-05-04 10:04 | -33.94322 | 151.17889 | 25 ft | 21 kts | 167° |
| 2026-05-04 10:04 | -33.94460 | 151.17904 | 24 ft | 19 kts | 200° |
| 2026-05-04 10:04 | -33.94595 | 151.17902 | 25 ft | 20 kts | 168° |
| 2026-05-04 10:04 | -33.94735 | 151.17940 | 23 ft | 22 kts | 167° |
| 2026-05-04 10:05 | -33.94893 | 151.17980 | 22 ft | 24 kts | 167° |
| 2026-05-04 10:05 | -33.95052 | 151.18019 | 27 ft | 15 kts | 166° |
| 2026-05-04 10:05 | -33.95101 | 151.18115 | 26 ft | 16 kts | 83° |
| 2026-05-04 10:05 | -33.95076 | 151.18254 | 26 ft | 18 kts | 77° |
| 2026-05-04 10:06 | -33.95053 | 151.18382 | 25 ft | 13 kts | 77° |
| 2026-05-04 10:06 | -33.95043 | 151.18435 | 27 ft | 0 kts | 77° |
| 2026-05-04 10:08 | -33.95063 | 151.18500 | 26 ft | 9 kts | 134° |
| 2026-05-04 10:08 | -33.95129 | 151.18558 | 25 ft | 20 kts | 139° |
| 2026-05-04 10:08 | -33.95248 | 151.18676 | 24 ft | 23 kts | 150° |
| 2026-05-04 10:08 | -33.95400 | 151.18743 | 22 ft | 25 kts | 166° |
| 2026-05-04 10:09 | -33.95576 | 151.18790 | 23 ft | 26 kts | 167° |
| 2026-05-04 10:09 | -33.95757 | 151.18837 | 24 ft | 27 kts | 167° |
| 2026-05-04 10:09 | -33.95935 | 151.18883 | 27 ft | 22 kts | 166° |
| 2026-05-04 10:09 | -33.96037 | 151.18913 | 25 ft | 24 kts | 167° |
| 2026-05-04 10:10 | -33.96263 | 151.18969 | 25 ft | 26 kts | 167° |
| 2026-05-04 10:10 | -33.96447 | 151.19018 | 20 ft | 29 kts | 168° |
| 2026-05-04 10:10 | -33.96645 | 151.19067 | 19 ft | 26 kts | 168° |
| 2026-05-04 10:10 | -33.96791 | 151.19069 | 17 ft | 16 kts | 182° |
| 2026-05-04 10:11 | -33.96904 | 151.19090 | 18 ft | 17 kts | 167° |
| 2026-05-04 10:11 | -33.97021 | 151.19123 | 19 ft | 17 kts | 171° |
| 2026-05-04 10:11 | -33.97119 | 151.19158 | 20 ft | 15 kts | 139° |
| 2026-05-04 10:11 | -33.97124 | 151.19256 | 21 ft | 10 kts | 78° |
| 2026-05-04 10:12 | -33.97123 | 151.19261 | 21 ft | 0 kts | 78° |
| 2026-05-04 10:14 | -33.97120 | 151.19280 | 23 ft | 9 kts | 78° |
| 2026-05-04 10:16 | -33.94067 | 151.18838 | 973 ft | 132 kts | 13° |
| 2026-05-04 10:16 | -33.93260 | 151.19375 | 1460 ft | 137 kts | 43° |
| 2026-05-04 10:16 | -33.92792 | 151.20422 | 1850 ft | 155 kts | 72° |
| 2026-05-04 10:16 | -33.92966 | 151.21827 | 2022 ft | 189 kts | 112° |
| 2026-05-04 10:17 | -33.93602 | 151.23284 | 2397 ft | 200 kts | 108° |
| 2026-05-04 10:17 | -33.93843 | 151.24899 | 2897 ft | 196 kts | 82° |
| 2026-05-04 10:19 | -33.93393 | 151.39977 | 6898 ft | 290 kts | 84° |
| 2026-05-04 10:19 | -33.93385 | 151.42417 | 7666 ft | 297 kts | 94° |
| 2026-05-04 10:19 | -33.94063 | 151.44799 | 8411 ft | 307 kts | 120° |
| 2026-05-04 10:19 | -33.95527 | 151.46690 | 9163 ft | 313 kts | 145° |
| 2026-05-04 10:20 | -33.97466 | 151.47792 | 9905 ft | 315 kts | 168° |
| 2026-05-04 10:20 | -33.99647 | 151.47950 | 10466 ft | 320 kts | 191° |
| 2026-05-04 10:20 | -34.01782 | 151.47071 | 10646 ft | 333 kts | 216° |
| 2026-05-04 10:20 | -34.03524 | 151.45212 | 10995 ft | 339 kts | 232° |
| 2026-05-04 10:21 | -34.05158 | 151.43118 | 11588 ft | 345 kts | 231° |
| 2026-05-04 10:21 | -34.06831 | 151.40999 | 12254 ft | 349 kts | 231° |
| 2026-05-04 10:21 | -34.08524 | 151.38872 | 12902 ft | 353 kts | 231° |
| 2026-05-04 10:21 | -34.10238 | 151.36731 | 13542 ft | 357 kts | 231° |
| 2026-05-04 10:22 | -34.13711 | 151.32389 | 14733 ft | 364 kts | 231° |
| 2026-05-04 10:22 | -34.15474 | 151.30185 | 15328 ft | 366 kts | 231° |
| 2026-05-04 10:22 | -34.17245 | 151.27969 | 15921 ft | 368 kts | 231° |
| 2026-05-04 10:23 | -34.19026 | 151.25732 | 16515 ft | 371 kts | 231° |
| 2026-05-04 10:23 | -34.20817 | 151.23478 | 17111 ft | 373 kts | 231° |
| 2026-05-04 10:25 | -34.33671 | 151.07218 | 20967 ft | 391 kts | 232° |
| 2026-05-04 10:25 | -34.35558 | 151.04828 | 21488 ft | 394 kts | 232° |
| 2026-05-04 10:25 | -34.37457 | 151.02421 | 22000 ft | 397 kts | 232° |
| 2026-05-04 10:25 | -34.39368 | 150.99995 | 22503 ft | 399 kts | 232° |
| 2026-05-04 10:26 | -34.41290 | 150.97555 | 23011 ft | 402 kts | 232° |
| 2026-05-04 10:26 | -34.43234 | 150.95093 | 23515 ft | 405 kts | 232° |
| 2026-05-04 10:26 | -34.45183 | 150.92623 | 23933 ft | 407 kts | 232° |
| 2026-05-04 10:26 | -34.47143 | 150.90130 | 24351 ft | 409 kts | 232° |
| 2026-05-04 10:27 | -34.49108 | 150.87626 | 24763 ft | 411 kts | 232° |
| 2026-05-04 10:27 | -34.51077 | 150.85117 | 25171 ft | 412 kts | 232° |
| 2026-05-04 10:27 | -34.53059 | 150.82593 | 25577 ft | 414 kts | 232° |
| 2026-05-04 10:27 | -34.55049 | 150.80057 | 25974 ft | 416 kts | 233° |
| 2026-05-04 10:28 | -34.56872 | 150.77353 | 26358 ft | 412 kts | 239° |
| 2026-05-04 10:28 | -34.58572 | 150.74544 | 26749 ft | 414 kts | 240° |
| 2026-05-04 10:28 | -34.60271 | 150.71719 | 27131 ft | 415 kts | 240° |
| 2026-05-04 10:28 | -34.61953 | 150.68913 | 27511 ft | 417 kts | 240° |
| 2026-05-04 10:29 | -34.63681 | 150.66030 | 27907 ft | 418 kts | 240° |
| 2026-05-04 10:29 | -34.65376 | 150.63207 | 28283 ft | 420 kts | 240° |
| 2026-05-04 10:29 | -34.67104 | 150.60332 | 28658 ft | 422 kts | 240° |
| 2026-05-04 10:29 | -34.68836 | 150.57450 | 29014 ft | 424 kts | 239° |
| 2026-05-04 10:30 | -34.70579 | 150.54549 | 29358 ft | 426 kts | 240° |
| 2026-05-04 10:30 | -34.72332 | 150.51627 | 29707 ft | 428 kts | 239° |
| 2026-05-04 10:30 | -34.74088 | 150.48699 | 30027 ft | 431 kts | 239° |
| 2026-05-04 10:30 | -34.75863 | 150.45742 | 30330 ft | 433 kts | 239° |
| 2026-05-04 10:31 | -34.77633 | 150.42791 | 30686 ft | 432 kts | 240° |
| 2026-05-04 10:31 | -34.79401 | 150.39846 | 31142 ft | 429 kts | 240° |
| 2026-05-04 10:32 | -34.89664 | 150.22645 | 33981 ft | 410 kts | 241° |
| 2026-05-04 10:33 | -34.92985 | 150.17055 | 34065 ft | 406 kts | 241° |
| 2026-05-04 10:33 | -34.96285 | 150.11481 | 34068 ft | 406 kts | 241° |
| 2026-05-04 10:34 | -34.99591 | 150.05905 | 34071 ft | 406 kts | 241° |
| 2026-05-04 10:34 | -35.02898 | 150.00311 | 34072 ft | 407 kts | 241° |
| 2026-05-04 10:35 | -35.06209 | 149.94704 | 34077 ft | 408 kts | 241° |
| 2026-05-04 10:35 | -35.09500 | 149.89119 | 34082 ft | 408 kts | 241° |
| 2026-05-04 10:36 | -35.12812 | 149.83487 | 34086 ft | 409 kts | 241° |
| 2026-05-04 10:36 | -35.16135 | 149.77841 | 34084 ft | 410 kts | 241° |
| 2026-05-04 10:37 | -35.19483 | 149.72142 | 34083 ft | 410 kts | 241° |
| 2026-05-04 10:37 | -35.22787 | 149.66501 | 34083 ft | 411 kts | 241° |
| 2026-05-04 10:39 | -35.34453 | 149.46520 | 34099 ft | 413 kts | 242° |
| 2026-05-04 10:40 | -35.37797 | 149.40779 | 34104 ft | 413 kts | 242° |
| 2026-05-04 10:40 | -35.41130 | 149.35027 | 34109 ft | 414 kts | 242° |
| 2026-05-04 10:41 | -35.44464 | 149.29272 | 34116 ft | 414 kts | 242° |
| 2026-05-04 10:41 | -35.47805 | 149.23518 | 34115 ft | 414 kts | 242° |
| 2026-05-04 10:42 | -35.51138 | 149.17757 | 34113 ft | 414 kts | 242° |
| 2026-05-04 10:42 | -35.54458 | 149.11991 | 34112 ft | 414 kts | 242° |
| 2026-05-04 10:43 | -35.57769 | 149.06246 | 34114 ft | 414 kts | 242° |
| 2026-05-04 10:45 | -35.71018 | 148.83145 | 34125 ft | 412 kts | 242° |
| 2026-05-04 10:45 | -35.74312 | 148.77378 | 34126 ft | 411 kts | 243° |
| 2026-05-04 10:46 | -35.77597 | 148.71611 | 34120 ft | 411 kts | 243° |
| 2026-05-04 10:46 | -35.80860 | 148.65872 | 34119 ft | 411 kts | 243° |
| 2026-05-04 10:47 | -35.84135 | 148.60105 | 34114 ft | 411 kts | 243° |
| 2026-05-04 10:47 | -35.87419 | 148.54322 | 34117 ft | 411 kts | 243° |
| 2026-05-04 10:49 | -36.00460 | 148.31165 | 34109 ft | 411 kts | 244° |
| 2026-05-04 10:50 | -36.03714 | 148.25350 | 34100 ft | 411 kts | 244° |
| 2026-05-04 10:52 | -36.16777 | 148.01973 | 34080 ft | 415 kts | 244° |
| 2026-05-04 10:52 | -36.20043 | 147.96133 | 34085 ft | 415 kts | 244° |
| 2026-05-04 10:54 | -36.33203 | 147.72436 | 34073 ft | 418 kts | 244° |
| 2026-05-04 10:56 | -36.46404 | 147.48481 | 34053 ft | 423 kts | 244° |
| 2026-05-04 10:57 | -36.49717 | 147.42439 | 34057 ft | 424 kts | 244° |
| 2026-05-04 10:57 | -36.53012 | 147.36412 | 34051 ft | 424 kts | 244° |
| 2026-05-04 10:58 | -36.56332 | 147.30331 | 34053 ft | 425 kts | 244° |
| 2026-05-04 10:58 | -36.59648 | 147.24244 | 34051 ft | 426 kts | 245° |
| 2026-05-04 10:59 | -36.62986 | 147.18126 | 34047 ft | 428 kts | 244° |
| 2026-05-04 10:59 | -36.64972 | 147.15294 | 34051 ft | 445 kts | 228° |
| 2026-05-04 10:59 | -36.66712 | 147.13776 | 34051 ft | 459 kts | 216° |
| 2026-05-04 10:59 | -36.69725 | 147.12315 | 34037 ft | 475 kts | 198° |
| 2026-05-04 11:00 | -36.73020 | 147.11668 | 34030 ft | 482 kts | 193° |
| 2026-05-04 11:02 | -37.00001 | 147.07820 | 34024 ft | 492 kts | 192° |
| 2026-05-04 11:05 | -37.51763 | 147.00155 | 33976 ft | 497 kts | 202° |
| 2026-05-04 11:06 | -37.54942 | 146.98675 | 33984 ft | 479 kts | 217° |
| 2026-05-04 11:06 | -37.57661 | 146.96402 | 33971 ft | 460 kts | 231° |
| 2026-05-04 11:06 | -37.59819 | 146.93548 | 33960 ft | 441 kts | 245° |
| 2026-05-04 11:06 | -37.61370 | 146.90314 | 33966 ft | 423 kts | 257° |
| 2026-05-04 11:08 | -37.57887 | 146.69098 | 33962 ft | 346 kts | 322° |
| 2026-05-04 11:10 | -37.44030 | 146.59153 | 31077 ft | 318 kts | 333° |
| 2026-05-04 11:12 | -37.30699 | 146.50139 | 27993 ft | 309 kts | 334° |
| 2026-05-04 11:12 | -37.28805 | 146.48863 | 27545 ft | 309 kts | 334° |
| 2026-05-04 11:12 | -37.26905 | 146.47583 | 27069 ft | 310 kts | 334° |
| 2026-05-04 11:12 | -37.25010 | 146.46306 | 26658 ft | 309 kts | 334° |
| 2026-05-04 11:13 | -37.23142 | 146.44971 | 26207 ft | 311 kts | 327° |
| 2026-05-04 11:13 | -37.21635 | 146.42998 | 25788 ft | 320 kts | 308° |
| 2026-05-04 11:13 | -37.20811 | 146.40349 | 25342 ft | 337 kts | 287° |
| 2026-05-04 11:13 | -37.20928 | 146.37337 | 24933 ft | 360 kts | 262° |
| 2026-05-04 11:14 | -37.21818 | 146.34363 | 24458 ft | 367 kts | 256° |
| 2026-05-04 11:14 | -37.22802 | 146.31391 | 24024 ft | 368 kts | 255° |
| 2026-05-04 11:14 | -37.23801 | 146.28438 | 23670 ft | 367 kts | 255° |
| 2026-05-04 11:16 | -37.30510 | 146.08359 | 20979 ft | 344 kts | 256° |
| 2026-05-04 11:16 | -37.31417 | 146.05593 | 20656 ft | 341 kts | 256° |
| 2026-05-04 11:16 | -37.32315 | 146.02855 | 20319 ft | 338 kts | 256° |
| 2026-05-04 11:17 | -37.33205 | 146.00140 | 20010 ft | 334 kts | 256° |
| 2026-05-04 11:17 | -37.34087 | 145.97454 | 19652 ft | 331 kts | 257° |
| 2026-05-04 11:19 | -37.40021 | 145.79307 | 17326 ft | 313 kts | 256° |
| 2026-05-04 11:19 | -37.40845 | 145.76781 | 16965 ft | 311 kts | 256° |
| 2026-05-04 11:19 | -37.41665 | 145.74262 | 16573 ft | 310 kts | 256° |
| 2026-05-04 11:19 | -37.42479 | 145.71758 | 16206 ft | 309 kts | 256° |
| 2026-05-04 11:20 | -37.43289 | 145.69263 | 15838 ft | 307 kts | 256° |
| 2026-05-04 11:20 | -37.44097 | 145.66778 | 15454 ft | 306 kts | 256° |
| 2026-05-04 11:20 | -37.44930 | 145.64315 | 15064 ft | 308 kts | 250° |
| 2026-05-04 11:20 | -37.46090 | 145.62015 | 14682 ft | 314 kts | 241° |
| 2026-05-04 11:22 | -37.54996 | 145.46721 | 12261 ft | 302 kts | 241° |
| 2026-05-04 11:22 | -37.56234 | 145.44588 | 11943 ft | 300 kts | 241° |
| 2026-05-04 11:23 | -37.57464 | 145.42467 | 11603 ft | 299 kts | 241° |
| 2026-05-04 11:23 | -37.58669 | 145.40386 | 11277 ft | 297 kts | 241° |
| 2026-05-04 11:24 | -37.65796 | 145.28044 | 9441 ft | 283 kts | 240° |
| 2026-05-04 11:25 | -37.66948 | 145.26048 | 9154 ft | 280 kts | 240° |
| 2026-05-04 11:25 | -37.68088 | 145.24066 | 8840 ft | 278 kts | 240° |
| 2026-05-04 11:25 | -37.68853 | 145.22735 | 8612 ft | 277 kts | 240° |
| 2026-05-04 11:26 | -37.71459 | 145.18202 | 7887 ft | 272 kts | 240° |
| 2026-05-04 11:27 | -37.78354 | 145.06201 | 5687 ft | 237 kts | 239° |
| 2026-05-04 11:28 | -37.78999 | 145.05067 | 5475 ft | 236 kts | 239° |